Time;durP1;ratioP1;P1;durP2;ratioP2;P2;SDS_P1;SDS_P2;PMS_P1;PMS_P2;Temp;Humidity;BMP_temperature;BMP_pressure;BME280_temperature;BME280_humidity;BME280_pressure;Samples;Min_cycle;Max_cycle;Signal;HPM_P1;HPM_P2
2021/01/16 00:00:29;;;;;;;15.38;10.65;;;0.00;99.90;;;;;;4901012;29;20609;-85
2021/01/16 00:02:55;;;;;;;11.80;9.75;;;0.10;99.90;;;;;;4900928;29;20215;-85
2021/01/16 00:05:23;;;;;;;13.65;11.65;;;0.00;99.90;;;;;;4900636;29;20234;-85
2021/01/16 00:08:00;;;;;;;16.15;12.70;;;0.00;99.90;;;;;;4901353;29;20211;-85
2021/01/16 00:10:27;;;;;;;13.32;11.93;;;-0.10;99.90;;;;;;4900898;29;20249;-86
2021/01/16 00:13:05;;;;;;;10.98;9.07;;;-0.10;99.90;;;;;;4905646;29;20243;-85
2021/01/16 00:18:48;;;;;;;14.77;10.65;;;0.10;99.90;;;;;;4860092;29;20222;-85
2021/01/16 00:21:53;;;;;;;19.65;12.25;;;0.10;99.90;;;;;;4917332;29;20234;-85
2021/01/16 00:24:58;;;;;;;13.23;11.18;;;0.20;99.90;;;;;;4876288;29;20207;-85
2021/01/16 00:27:33;;;;;;;12.85;11.02;;;0.20;99.90;;;;;;4878449;29;20284;-85
2021/01/16 00:30:07;;;;;;;20.77;13.32;;;0.30;99.90;;;;;;4916986;29;20231;-85
2021/01/16 00:32:35;;;;;;;20.33;12.43;;;0.20;99.90;;;;;;4917083;29;20218;-85
2021/01/16 00:35:06;;;;;;;18.75;11.43;;;0.20;99.90;;;;;;4916218;29;20211;-85
2021/01/16 00:37:33;;;;;;;13.52;9.52;;;0.20;99.90;;;;;;4917136;29;20207;-85
2021/01/16 00:40:11;;;;;;;12.32;9.60;;;0.20;99.90;;;;;;4916679;29;20299;-85
2021/01/16 00:42:46;;;;;;;16.55;11.35;;;0.20;99.90;;;;;;4916569;29;20265;-85
2021/01/16 00:48:42;;;;;;;16.02;11.65;;;0.20;99.90;;;;;;4877058;29;20212;-85
2021/01/16 00:51:47;;;;;;;;;;;;;;;;;;;;;
2021/01/16 00:54:56;;;;;;;;;;;;;;;;;;;;;
2021/01/16 01:00:32;;;;;;;13.40;11.32;;;0.60;99.90;;;;;;4883374;29;20278;-86
2021/01/16 01:02:59;;;;;;;13.82;10.80;;;0.70;99.90;;;;;;4916444;29;20243;-86
2021/01/16 01:05:25;;;;;;;21.30;12.02;;;0.70;99.90;;;;;;4916717;29;20235;-86
2021/01/16 01:07:58;;;;;;;15.30;11.85;;;0.80;99.90;;;;;;4916860;29;20242;-85
2021/01/16 01:10:33;;;;;;;14.05;10.00;;;0.80;99.90;;;;;;4916437;29;20247;-85
2021/01/16 01:13:02;;;;;;;14.55;10.70;;;0.80;99.90;;;;;;4916796;29;20234;-85
2021/01/16 01:15:46;;;;;;;13.45;10.43;;;0.80;99.90;;;;;;4917235;29;20605;-85
2021/01/16 01:18:13;;;;;;;13.15;10.68;;;0.80;99.90;;;;;;4917231;29;20220;-85
2021/01/16 01:20:39;;;;;;;14.90;11.82;;;0.70;99.90;;;;;;4917297;29;20235;-85
2021/01/16 01:23:07;;;;;;;18.48;13.32;;;0.70;99.90;;;;;;4916859;29;20211;-85
2021/01/16 01:25:33;;;;;;;16.42;12.23;;;0.60;99.90;;;;;;4916570;29;20223;-85
2021/01/16 01:28:09;;;;;;;18.85;12.40;;;0.50;99.90;;;;;;4916869;29;20206;-85
2021/01/16 01:30:37;;;;;;;15.45;11.40;;;0.60;99.90;;;;;;4903248;29;20235;-86
2021/01/16 01:36:32;;;;;;;;;;;;;;;;;;;;;
2021/01/16 01:39:34;;;;;;;19.17;11.55;;;0.50;99.90;;;;;;4878683;29;20295;-86
2021/01/16 01:42:33;;;;;;;;;;;;;;;;;;;;;
2021/01/16 01:45:04;;;;;;;17.48;13.18;;;0.60;99.90;;;;;;4903269;29;20295;-86
2021/01/16 01:48:25;;;;;;;16.98;12.13;;;0.40;99.90;;;;;;4906101;29;20755;-86
2021/01/16 01:54:16;;;;;;;;;;;;;;;;;;;;;
2021/01/16 01:57:22;;;;;;;;;;;;;;;;;;;;;
2021/01/16 02:00:09;;;;;;;;;;;;;;;;;;;;;
2021/01/16 02:03:06;;;;;;;17.58;11.88;;;0.60;99.90;;;;;;4906843;29;20234;-86
2021/01/16 02:06:02;;;;;;;;;;;;;;;;;;;;;
2021/01/16 02:12:19;;;;;;;15.90;12.07;;;0.50;99.90;;;;;;4846195;29;20247;-86
2021/01/16 02:15:26;;;;;;;16.58;11.55;;;0.30;99.90;;;;;;4900622;29;20307;-85
2021/01/16 02:18:23;;;;;;;16.83;12.43;;;0.30;99.90;;;;;;4884437;29;20303;-86
2021/01/16 02:20:58;;;;;;;19.30;12.07;;;0.30;99.90;;;;;;4884543;29;20259;-86
2021/01/16 02:24:02;;;;;;;17.20;12.48;;;0.10;99.90;;;;;;4889542;29;20285;-86
2021/01/16 02:30:25;;;;;;;17.73;12.82;;;0.10;99.90;;;;;;4895259;29;20220;-87
2021/01/16 02:33:09;;;;;;;22.08;13.55;;;0.10;99.90;;;;;;4881295;29;20215;-86
2021/01/16 02:35:59;;;;;;;15.63;11.63;;;0.10;99.90;;;;;;4883381;29;20215;-86
2021/01/16 02:38:59;;;;;;;20.17;12.70;;;0.00;99.90;;;;;;4884957;29;20208;-86
2021/01/16 02:42:01;;;;;;;18.55;12.23;;;0.00;99.90;;;;;;4900572;29;20259;-86
2021/01/16 02:44:59;;;;;;;;;;;;;;;;;;;;;
2021/01/16 02:48:00;;;;;;;;;;;;;;;;;;;;;
2021/01/16 02:53:53;;;;;;;;;;;;;;;;;;;;;
2021/01/16 02:57:08;;;;;;;;;;;;;;;;;;;;;
2021/01/16 02:59:57;;;;;;;19.25;12.65;;;0.20;99.90;;;;;;4845475;29;20233;-85
2021/01/16 03:02:50;;;;;;;18.95;12.40;;;0.10;99.90;;;;;;4842953;29;20270;-86
2021/01/16 03:09:31;;;;;;;22.05;13.60;;;0.10;99.90;;;;;;4889344;29;20255;-85
2021/01/16 03:12:25;;;;;;;21.25;13.95;;;0.00;99.90;;;;;;4912045;29;20242;-85
2021/01/16 03:15:35;;;;;;;16.88;13.00;;;0.00;99.90;;;;;;4919332;29;20215;-85
2021/01/16 03:24:19;;;;;;;18.17;12.85;;;0.10;99.90;;;;;;4904887;29;20215;-85
2021/01/16 03:27:24;;;;;;;;;;;;;;;;;;;;;
2021/01/16 03:30:18;;;;;;;20.48;12.93;;;0.20;99.90;;;;;;4856410;29;20256;-85
2021/01/16 03:33:08;;;;;;;21.02;14.10;;;0.20;99.90;;;;;;4806743;30;20249;-84
2021/01/16 03:36:07;;;;;;;;;;;;;;;;;;;;;
2021/01/16 03:38:57;;;;;;;;;;;;;;;;;;;;;
2021/01/16 03:41:50;;;;;;;21.40;17.20;;;-0.10;99.90;;;;;;4918546;29;20273;-85
2021/01/16 03:44:56;;;;;;;22.77;13.95;;;-0.10;99.90;;;;;;4918877;29;20200;-85
2021/01/16 03:47:48;;;;;;;;;;;;;;;;;;;;;
2021/01/16 03:50:24;;;;;;;30.80;17.40;;;-0.20;99.90;;;;;;4917119;29;20255;-85
2021/01/16 03:53:08;;;;;;;27.48;17.15;;;-0.10;99.90;;;;;;4918660;29;20231;-85
2021/01/16 03:56:14;;;;;;;;;;;;;;;;;;;;;
2021/01/16 03:59:37;;;;;;;;;;;;;;;;;;;;;
2021/01/16 04:02:49;;;;;;;21.67;15.85;;;0.10;99.90;;;;;;4905954;29;20235;-84
2021/01/16 04:05:41;;;;;;;;;;;;;;;;;;;;;
2021/01/16 04:08:17;;;;;;;26.15;16.25;;;0.10;99.90;;;;;;4922590;29;20219;-84
2021/01/16 04:10:44;;;;;;;27.58;15.00;;;0.00;99.90;;;;;;4920276;29;20245;-85
2021/01/16 04:13:25;;;;;;;26.05;14.60;;;-0.10;99.90;;;;;;4918672;29;20206;-85
2021/01/16 04:19:31;;;;;;;24.98;14.95;;;-0.10;99.90;;;;;;4858618;29;20205;-85
2021/01/16 04:22:06;;;;;;;28.95;17.83;;;-0.10;99.90;;;;;;4860600;29;20225;-85
2021/01/16 04:24:33;;;;;;;25.08;16.58;;;-0.10;99.90;;;;;;4910058;29;20215;-85
2021/01/16 04:27:01;;;;;;;30.17;18.92;;;-0.10;99.90;;;;;;4917750;29;20701;-85
2021/01/16 04:29:29;;;;;;;27.73;16.02;;;-0.10;99.90;;;;;;4917554;29;20216;-85
2021/01/16 04:32:17;;;;;;;28.02;17.58;;;-0.10;99.90;;;;;;4917920;29;20231;-85
2021/01/16 04:35:08;;;;;;;30.65;16.85;;;-0.10;99.90;;;;;;4918203;29;20226;-85
2021/01/16 04:37:56;;;;;;;30.48;21.33;;;-0.10;99.90;;;;;;4909510;29;20239;-85
2021/01/16 04:43:36;;;;;;;;;;;;;;;;;;;;;
2021/01/16 04:46:14;;;;;;;27.58;18.50;;;-0.10;99.90;;;;;;4917174;29;20255;-85
2021/01/16 04:48:45;;;;;;;22.65;15.18;;;-0.10;99.90;;;;;;4917348;29;20231;-85
2021/01/16 04:51:14;;;;;;;29.48;17.58;;;0.00;99.90;;;;;;4916762;29;20235;-86
2021/01/16 04:53:41;;;;;;;30.48;18.35;;;-0.10;99.90;;;;;;4917555;29;20198;-84
2021/01/16 04:56:10;;;;;;;29.10;18.23;;;-0.20;99.90;;;;;;4917119;29;20225;-84
2021/01/16 04:58:46;;;;;;;28.08;17.58;;;-0.20;99.90;;;;;;4917638;29;20271;-84
2021/01/16 05:01:28;;;;;;;24.15;16.13;;;-0.10;99.90;;;;;;4917245;29;20244;-84
2021/01/16 05:04:07;;;;;;;;;;;;;;;;;;;;;
2021/01/16 05:10:06;;;;;;;20.83;14.77;;;-0.10;99.90;;;;;;4894782;29;20234;-84
2021/01/16 05:13:02;;;;;;;25.27;15.15;;;-0.20;99.90;;;;;;4917764;29;20230;-84
2021/01/16 05:15:37;;;;;;;20.92;13.77;;;-0.10;99.90;;;;;;4918219;29;20235;-84
2021/01/16 05:21:24;;;;;;;;;;;;;;;;;;;;;
2021/01/16 05:24:18;;;;;;;;;;;;;;;;;;;;;
2021/01/16 05:27:13;;;;;;;20.23;14.30;;;-0.20;99.90;;;;;;4907167;29;20785;-84
2021/01/16 05:30:24;;;;;;;;;;;;;;;;;;;;;
2021/01/16 05:36:15;;;;;;;;;;;;;;;;;;;;;
2021/01/16 05:39:17;;;;;;;21.33;15.10;;;-0.20;99.90;;;;;;4907347;29;20214;-85
2021/01/16 05:42:16;;;;;;;;;;;;;;;;;;;;;
2021/01/16 05:54:40;;;;;;;25.00;15.27;;;-0.20;99.90;;;;;;4879150;29;20222;-85
2021/01/16 06:07:42;;;;;;;;;;;;;;;;;;;;;
2021/01/16 06:10:58;;;;;;;24.50;15.10;;;-0.30;99.90;;;;;;4902273;29;20318;-84
2021/01/16 06:14:03;;;;;;;26.38;17.27;;;-0.30;99.90;;;;;;4829317;29;20240;-83
2021/01/16 06:17:23;;;;;;;22.83;15.65;;;-0.40;99.90;;;;;;4903536;29;20243;-85
2021/01/16 06:19:54;;;;;;;27.67;15.73;;;-0.40;99.90;;;;;;4848602;29;20213;-84
2021/01/16 06:23:02;;;;;;;;;;;;;;;;;;;;;
2021/01/16 06:26:03;;;;;;;29.33;18.23;;;-0.20;99.90;;;;;;4881778;29;20294;-83
2021/01/16 06:29:25;;;;;;;25.83;16.05;;;0.00;99.90;;;;;;4893232;29;20250;-85
2021/01/16 06:32:11;;;;;;;21.05;15.50;;;-0.10;99.90;;;;;;4845706;29;20261;-84
2021/01/16 06:34:43;;;;;;;22.60;14.95;;;-0.10;99.90;;;;;;4885442;29;20211;-84
2021/01/16 06:40:40;;;;;;;;;;;;;;;;;;;;;
2021/01/16 06:50:13;;;;;;;18.80;13.05;;;-0.30;99.90;;;;;;4891387;29;20374;-84
2021/01/16 06:53:19;;;;;;;21.88;15.48;;;-0.10;99.90;;;;;;4902940;29;20241;-85
2021/01/16 06:59:44;;;;;;;;;;;;;;;;;;;;;
2021/01/16 07:12:29;;;;;;;;;;;;;;;;;;;;;
2021/01/16 07:15:13;;;;;;;22.83;15.73;;;0.30;99.90;;;;;;4900231;29;20686;-85
2021/01/16 07:17:56;;;;;;;27.75;18.15;;;0.40;99.90;;;;;;4890496;29;20243;-85
2021/01/16 07:27:15;;;;;;;21.40;15.80;;;0.30;99.90;;;;;;4875662;29;20223;-85
2021/01/16 07:33:36;;;;;;;;;;;;;;;;;;;;;
2021/01/16 07:43:20;;;;;;;27.42;16.70;;;0.80;99.90;;;;;;4830910;29;20205;-85
2021/01/16 07:45:59;;;;;;;27.30;17.25;;;0.90;99.90;;;;;;4917451;29;20227;-85
2021/01/16 07:49:07;;;;;;;;;;;;;;;;;;;;;
2021/01/16 09:55:53;;;;;;;14.18;11.45;;;1.70;99.90;;;;;;4690223;30;20211;-84
2021/01/16 13:49:57;;;;;;;6.25;5.05;;;1.50;95.00;;;;;;4805285;29;20652;-83
2021/01/16 13:52:32;;;;;;;5.28;4.40;;;1.40;94.70;;;;;;4907352;29;20271;-83
2021/01/16 13:55:15;;;;;;;4.47;3.53;;;1.40;95.10;;;;;;4907780;29;20214;-80
2021/01/16 13:57:44;;;;;;;5.00;4.57;;;1.40;95.20;;;;;;4906963;29;20246;-82
2021/01/16 14:00:22;;;;;;;4.20;3.90;;;1.40;95.10;;;;;;4906830;29;20231;-80
2021/01/16 14:02:53;;;;;;;5.82;4.80;;;1.20;95.20;;;;;;4907113;29;20247;-81
2021/01/16 20:02:15;;;;;;;15.88;11.10;;;-0.50;99.90;;;;;;4886509;29;20223;-84
2021/01/16 20:04:41;;;;;;;15.43;11.52;;;-0.50;99.90;;;;;;4889921;29;20644;-82
2021/01/16 20:07:08;;;;;;;12.52;10.23;;;-0.40;99.90;;;;;;4888840;29;20727;-84
2021/01/16 20:09:34;;;;;;;9.77;8.05;;;-0.40;99.90;;;;;;4888551;29;20219;-86
2021/01/16 20:12:00;;;;;;;13.90;9.68;;;-0.40;99.90;;;;;;4887706;29;20230;-87
2021/01/16 20:14:27;;;;;;;11.52;7.68;;;-0.40;99.90;;;;;;4884904;29;20215;-84
2021/01/16 20:16:54;;;;;;;12.00;9.63;;;-0.40;99.90;;;;;;4883604;29;20216;-83
2021/01/16 20:19:20;;;;;;;13.43;8.80;;;-0.50;99.90;;;;;;4883735;29;20263;-86
2021/01/16 20:21:48;;;;;;;17.50;10.52;;;-0.50;99.90;;;;;;4884983;29;20240;-86
2021/01/16 20:24:15;;;;;;;8.43;7.57;;;-0.60;99.90;;;;;;4884396;29;20208;-85
2021/01/16 20:26:42;;;;;;;15.20;9.75;;;-0.70;99.90;;;;;;4884576;29;20212;-86
2021/01/16 20:29:10;;;;;;;15.27;10.93;;;-0.70;99.90;;;;;;4883924;29;20790;-86
2021/01/16 20:31:40;;;;;;;10.02;7.60;;;-0.60;99.90;;;;;;4884900;29;20239;-86
2021/01/16 20:34:06;;;;;;;13.00;10.48;;;-0.60;99.90;;;;;;4884696;29;20210;-86
2021/01/16 20:36:35;;;;;;;13.32;9.75;;;-0.70;99.90;;;;;;4884970;29;20211;-85
2021/01/16 20:39:01;;;;;;;14.73;10.20;;;-0.60;99.90;;;;;;4885842;29;20260;-85
2021/01/16 20:41:28;;;;;;;18.00;10.05;;;-0.60;99.90;;;;;;4885481;29;20232;-86
2021/01/16 20:43:54;;;;;;;11.75;10.57;;;-0.70;99.90;;;;;;4884924;29;20220;-85
2021/01/16 20:46:20;;;;;;;16.27;10.93;;;-0.70;99.90;;;;;;4885306;29;20683;-85
2021/01/16 20:48:48;;;;;;;13.27;9.88;;;-0.70;99.90;;;;;;4885561;29;20227;-85
2021/01/16 20:51:15;;;;;;;11.98;10.70;;;-0.80;99.90;;;;;;4884010;29;20234;-85
2021/01/16 20:53:41;;;;;;;14.88;10.40;;;-0.80;99.90;;;;;;4882460;29;20219;-85
2021/01/16 20:56:08;;;;;;;14.15;10.02;;;-0.80;99.90;;;;;;4883578;29;20220;-85
2021/01/16 20:58:35;;;;;;;14.60;11.05;;;-0.90;99.90;;;;;;4884494;29;20254;-84
2021/01/16 21:01:02;;;;;;;8.15;7.10;;;-0.90;99.90;;;;;;4884826;29;20299;-86
2021/01/16 21:03:29;;;;;;;8.80;6.80;;;-1.00;99.90;;;;;;4884100;29;20217;-85
2021/01/16 21:05:56;;;;;;;14.70;10.57;;;-1.10;99.90;;;;;;4884974;29;20216;-85
2021/01/16 21:08:23;;;;;;;9.20;6.63;;;-1.10;99.90;;;;;;4884291;29;20675;-85
2021/01/16 21:10:49;;;;;;;14.30;10.10;;;-1.10;99.90;;;;;;4885129;29;20293;-85
2021/01/16 21:13:16;;;;;;;11.77;9.07;;;-1.10;99.90;;;;;;4884782;29;20240;-85
2021/01/16 21:15:42;;;;;;;13.20;10.07;;;-1.00;99.90;;;;;;4884613;29;20212;-85
2021/01/16 21:18:08;;;;;;;10.00;7.97;;;-1.00;99.90;;;;;;4885516;29;20207;-85
2021/01/16 21:20:35;;;;;;;13.05;9.35;;;-1.00;99.90;;;;;;4884628;29;20231;-85
2021/01/16 21:23:02;;;;;;;11.32;9.80;;;-1.00;99.90;;;;;;4883862;29;20229;-84
2021/01/16 21:25:28;;;;;;;13.95;9.68;;;-1.00;99.90;;;;;;4884189;29;20218;-85
2021/01/16 21:27:54;;;;;;;11.70;9.45;;;-1.00;99.90;;;;;;4884334;29;20236;-85
2021/01/16 21:30:21;;;;;;;13.63;9.77;;;-1.00;99.90;;;;;;4883683;29;20232;-85
2021/01/16 21:32:48;;;;;;;17.17;11.88;;;-1.00;99.90;;;;;;4883897;29;20258;-84
2021/01/16 21:35:14;;;;;;;13.48;8.63;;;-1.00;99.90;;;;;;4884403;29;20212;-85
2021/01/16 21:37:41;;;;;;;15.45;10.43;;;-1.00;99.90;;;;;;4884450;29;20222;-85
2021/01/16 21:40:09;;;;;;;16.55;10.38;;;-1.00;99.90;;;;;;4883509;29;20235;-85
2021/01/16 21:42:35;;;;;;;12.82;9.95;;;-1.00;99.90;;;;;;4883371;29;20240;-85
2021/01/16 21:45:03;;;;;;;13.82;10.73;;;-1.00;99.90;;;;;;4883977;29;20222;-84
2021/01/16 21:47:29;;;;;;;17.70;12.15;;;-1.10;99.90;;;;;;4884861;29;20281;-85
2021/01/16 21:49:55;;;;;;;11.82;8.85;;;-1.10;99.90;;;;;;4884315;29;20632;-85
2021/01/16 21:52:21;;;;;;;15.63;10.50;;;-1.00;99.90;;;;;;4883605;29;20218;-85
2021/01/16 21:54:48;;;;;;;13.13;9.63;;;-1.00;99.90;;;;;;4883875;29;20212;-85
2021/01/16 21:57:15;;;;;;;10.48;8.73;;;-1.00;99.90;;;;;;4885152;29;20215;-85
2021/01/16 21:59:42;;;;;;;8.43;7.53;;;-1.00;99.90;;;;;;4882201;29;20200;-85
2021/01/16 22:02:09;;;;;;;17.95;11.25;;;-1.00;99.90;;;;;;4884629;29;20208;-85
2021/01/16 22:04:35;;;;;;;15.05;11.23;;;-0.90;99.90;;;;;;4886758;29;20211;-85
2021/01/16 22:07:02;;;;;;;13.88;10.15;;;-0.80;99.90;;;;;;4887527;29;20227;-85
2021/01/16 22:09:28;;;;;;;10.05;8.98;;;-0.70;99.90;;;;;;4887326;29;20220;-84
2021/01/16 22:11:56;;;;;;;13.68;10.52;;;-0.70;99.90;;;;;;4887290;29;20239;-85
